Time;durP1;ratioP1;P1;durP2;ratioP2;P2;SDS_P1;SDS_P2;PMS_P1;PMS_P2;Temp;Humidity;BMP_temperature;BMP_pressure;BME280_temperature;BME280_humidity;BME280_pressure;Samples;Min_cycle;Max_cycle;Signal;HPM_P1;HPM_P2
2023/08/29 00:01:51;;;;;;;3.35;2.15;;;18.40;99.90;;;;;;4987904;28;20205;-74
2023/08/29 00:04:17;;;;;;;4.60;2.20;;;18.30;99.90;;;;;;4991686;28;20188;-74
2023/08/29 00:06:42;;;;;;;2.72;2.22;;;18.20;99.90;;;;;;5005378;28;20194;-76
2023/08/29 00:09:08;;;;;;;4.45;2.83;;;18.30;99.90;;;;;;4988538;28;20209;-75
2023/08/29 00:11:33;;;;;;;3.08;2.10;;;18.30;99.90;;;;;;4990983;28;20691;-75
2023/08/29 00:13:59;;;;;;;3.38;2.38;;;18.30;99.90;;;;;;5008735;28;20231;-74
2023/08/29 00:16:25;;;;;;;3.78;2.50;;;18.30;99.90;;;;;;5006244;28;20259;-74
2023/08/29 00:18:50;;;;;;;4.55;2.40;;;18.20;99.90;;;;;;5008750;28;20169;-75
2023/08/29 00:21:16;;;;;;;3.53;2.15;;;18.20;99.90;;;;;;5008368;28;20231;-75
2023/08/29 00:23:42;;;;;;;2.45;2.25;;;18.10;99.90;;;;;;5009939;28;20262;-75
2023/08/29 00:26:07;;;;;;;4.63;2.75;;;18.10;99.90;;;;;;5006357;28;20221;-74
2023/08/29 00:28:33;;;;;;;4.20;2.35;;;18.10;99.90;;;;;;5007703;28;20265;-75
2023/08/29 00:30:58;;;;;;;3.10;2.10;;;18.10;99.90;;;;;;5007161;28;20273;-73
2023/08/29 00:33:24;;;;;;;2.95;2.17;;;18.20;99.90;;;;;;5006591;28;20259;-75
2023/08/29 00:35:50;;;;;;;2.88;2.42;;;18.20;99.90;;;;;;5009571;28;20654;-74
2023/08/29 00:38:15;;;;;;;5.70;2.20;;;18.10;99.90;;;;;;4995917;28;20237;-75
2023/08/29 00:40:41;;;;;;;5.57;2.28;;;18.10;99.90;;;;;;5012896;28;20205;-74
2023/08/29 00:43:07;;;;;;;4.03;2.67;;;18.00;99.90;;;;;;5011392;28;20191;-75
2023/08/29 00:45:35;;;;;;;3.33;2.28;;;18.00;99.90;;;;;;4994278;28;20173;-75
2023/08/29 00:48:01;;;;;;;3.40;2.80;;;18.00;99.90;;;;;;5009659;28;20216;-74
2023/08/29 00:50:27;;;;;;;5.07;2.80;;;18.00;99.90;;;;;;5010372;28;20201;-74
2023/08/29 00:52:58;;;;;;;5.75;2.90;;;18.00;99.90;;;;;;5008754;28;20213;-74
2023/08/29 00:55:25;;;;;;;4.13;3.00;;;18.10;99.90;;;;;;4991320;28;20683;-76
2023/08/29 00:57:55;;;;;;;5.75;3.58;;;18.10;99.90;;;;;;4990699;28;20177;-75
2023/08/29 01:00:23;;;;;;;9.88;6.13;;;18.10;99.90;;;;;;4990285;28;20197;-76
2023/08/29 01:02:49;;;;;;;10.98;5.53;;;18.00;99.90;;;;;;5006125;28;20208;-74
2023/08/29 01:05:15;;;;;;;6.00;4.88;;;18.00;99.90;;;;;;5009408;28;20594;-75
2023/08/29 01:07:40;;;;;;;7.10;4.40;;;18.10;99.90;;;;;;5006680;28;20639;-76
2023/08/29 01:10:07;;;;;;;5.22;3.88;;;18.10;99.90;;;;;;5002525;28;20194;-75
2023/08/29 01:13:12;;;;;;;7.22;3.97;;;18.00;99.90;;;;;;4995569;28;20239;-75
2023/08/29 01:15:39;;;;;;;5.18;2.90;;;18.00;99.90;;;;;;4933124;28;20247;-75
2023/08/29 01:18:08;;;;;;;5.88;3.28;;;18.00;99.90;;;;;;5011710;28;20311;-74
2023/08/29 01:20:36;;;;;;;4.15;3.33;;;18.00;99.90;;;;;;5011772;28;21909;-74
2023/08/29 01:23:06;;;;;;;8.07;3.00;;;18.00;99.90;;;;;;5010670;28;20217;-75
2023/08/29 01:25:45;;;;;;;5.13;3.50;;;18.00;99.90;;;;;;4995496;28;20584;-75
2023/08/29 01:28:12;;;;;;;6.85;2.97;;;18.00;99.90;;;;;;5007671;28;20174;-75
2023/08/29 01:30:38;;;;;;;2.88;2.58;;;18.00;99.90;;;;;;5011437;28;20179;-75
2023/08/29 01:33:04;;;;;;;4.78;2.80;;;17.90;99.90;;;;;;4990568;28;20814;-73
2023/08/29 01:35:30;;;;;;;4.75;2.80;;;17.90;99.90;;;;;;5007517;28;20300;-74
2023/08/29 01:37:55;;;;;;;4.07;2.60;;;17.90;99.90;;;;;;5005501;28;20291;-75
2023/08/29 01:40:21;;;;;;;3.33;2.67;;;17.90;99.90;;;;;;5005399;28;20571;-76
2023/08/29 01:42:46;;;;;;;5.13;2.83;;;17.90;99.90;;;;;;5005640;28;20201;-73
2023/08/29 01:45:12;;;;;;;4.57;2.90;;;17.80;99.90;;;;;;5002986;28;20209;-74
2023/08/29 01:47:38;;;;;;;5.75;3.10;;;17.70;99.90;;;;;;5004697;28;20746;-75
2023/08/29 01:50:05;;;;;;;4.65;2.70;;;17.70;99.90;;;;;;5009031;28;20583;-75
2023/08/29 01:52:31;;;;;;;3.88;2.75;;;17.80;99.90;;;;;;5004641;28;20217;-76
2023/08/29 01:54:57;;;;;;;3.78;2.85;;;17.80;99.90;;;;;;5007607;28;20622;-74
2023/08/29 01:57:26;;;;;;;3.85;2.88;;;17.80;99.90;;;;;;4992352;28;20205;-75
2023/08/29 01:59:52;;;;;;;6.60;2.70;;;17.80;99.90;;;;;;5010084;28;20211;-75
2023/08/29 02:02:18;;;;;;;3.85;2.70;;;17.80;99.90;;;;;;5007732;28;20296;-75
2023/08/29 02:04:43;;;;;;;4.82;2.65;;;17.90;99.90;;;;;;4994588;28;20275;-75
2023/08/29 02:07:09;;;;;;;3.25;2.28;;;17.80;99.90;;;;;;5006622;28;20181;-75
2023/08/29 02:09:35;;;;;;;4.60;2.58;;;17.80;99.90;;;;;;4995123;28;20180;-75
2023/08/29 02:12:00;;;;;;;2.97;2.42;;;17.70;99.90;;;;;;5003911;28;20727;-75
2023/08/29 02:14:26;;;;;;;4.03;2.30;;;17.70;99.90;;;;;;4993637;28;20213;-75
2023/08/29 02:16:51;;;;;;;3.55;2.42;;;17.70;99.90;;;;;;4988387;28;20207;-74
2023/08/29 02:19:17;;;;;;;3.05;2.40;;;17.70;99.90;;;;;;5007154;28;20231;-75
2023/08/29 02:21:42;;;;;;;2.63;2.30;;;17.60;99.90;;;;;;5004179;28;20231;-75
2023/08/29 02:24:08;;;;;;;2.45;1.90;;;17.70;99.90;;;;;;5000662;28;20898;-73
2023/08/29 02:26:34;;;;;;;3.45;2.40;;;17.60;99.90;;;;;;5006755;28;20296;-76
2023/08/29 02:28:59;;;;;;;2.83;2.30;;;17.60;99.90;;;;;;5010905;28;20225;-75
2023/08/29 02:31:25;;;;;;;3.70;2.30;;;17.60;99.90;;;;;;5009851;28;20692;-76
2023/08/29 02:33:51;;;;;;;3.60;2.33;;;17.60;99.90;;;;;;4994783;28;20218;-75
2023/08/29 02:36:17;;;;;;;2.80;2.00;;;17.60;99.90;;;;;;5007469;28;20235;-74
2023/08/29 02:38:42;;;;;;;2.63;1.90;;;17.60;99.90;;;;;;4993441;28;20699;-75
2023/08/29 02:41:11;;;;;;;4.82;2.00;;;17.60;99.90;;;;;;4988380;28;20701;-76
2023/08/29 02:43:37;;;;;;;2.00;1.70;;;17.60;99.90;;;;;;5008995;28;20209;-75
2023/08/29 02:46:03;;;;;;;2.20;1.73;;;17.60;99.90;;;;;;5006037;28;20173;-75
2023/08/29 02:48:28;;;;;;;4.63;1.70;;;17.60;99.90;;;;;;5005347;28;20216;-74
2023/08/29 02:50:54;;;;;;;2.38;1.70;;;17.60;99.90;;;;;;5005245;28;20240;-75
2023/08/29 02:53:20;;;;;;;2.92;1.83;;;17.60;99.90;;;;;;5003144;28;20221;-74
2023/08/29 02:55:49;;;;;;;3.60;1.80;;;17.60;99.90;;;;;;5004458;28;20748;-73
2023/08/29 02:58:15;;;;;;;2.97;1.45;;;17.50;99.90;;;;;;5000879;28;20200;-75
2023/08/29 03:00:41;;;;;;;2.10;1.55;;;17.60;99.90;;;;;;5004218;28;20178;-75
2023/08/29 03:03:06;;;;;;;4.55;2.20;;;17.60;99.90;;;;;;4989338;28;20231;-76
2023/08/29 03:05:32;;;;;;;2.10;1.27;;;17.70;99.90;;;;;;5009054;28;20687;-75
2023/08/29 03:08:04;;;;;;;1.67;1.58;;;17.70;99.90;;;;;;4992547;28;20231;-75
2023/08/29 03:10:31;;;;;;;2.67;1.77;;;17.60;99.90;;;;;;5008297;28;20216;-74
2023/08/29 03:12:57;;;;;;;1.30;1.20;;;17.60;99.90;;;;;;5009994;28;20177;-74
2023/08/29 03:15:22;;;;;;;2.72;1.73;;;17.60;99.90;;;;;;5005645;28;20225;-75
2023/08/29 03:17:48;;;;;;;2.53;1.60;;;17.60;99.90;;;;;;5006239;28;20204;-74
2023/08/29 03:20:15;;;;;;;3.78;1.75;;;17.60;99.90;;;;;;4986370;28;20201;-73
2023/08/29 03:22:41;;;;;;;2.05;1.73;;;17.60;99.90;;;;;;4993345;28;20303;-75
2023/08/29 03:25:07;;;;;;;1.88;1.17;;;17.50;99.90;;;;;;4988746;28;20213;-75
2023/08/29 03:27:33;;;;;;;2.92;1.95;;;17.50;99.90;;;;;;5005475;28;20186;-74
2023/08/29 03:29:58;;;;;;;3.78;1.98;;;17.50;99.90;;;;;;4992251;28;20216;-74
2023/08/29 03:32:24;;;;;;;2.08;1.25;;;17.40;99.90;;;;;;5005402;28;20225;-75
2023/08/29 03:34:54;;;;;;;1.83;1.40;;;17.40;99.90;;;;;;5005748;28;20221;-74
2023/08/29 03:37:20;;;;;;;1.98;1.38;;;17.30;99.90;;;;;;5000326;28;20177;-74
2023/08/29 03:39:45;;;;;;;2.17;1.70;;;17.30;99.90;;;;;;4989572;28;20260;-75
2023/08/29 03:42:11;;;;;;;1.65;1.35;;;17.20;99.90;;;;;;4992217;28;20212;-75
2023/08/29 03:44:36;;;;;;;3.55;1.65;;;17.20;99.90;;;;;;5007776;28;20209;-74
2023/08/29 03:47:03;;;;;;;2.15;1.25;;;17.20;99.90;;;;;;5007690;28;20209;-75
2023/08/29 03:49:29;;;;;;;2.03;1.45;;;17.20;99.90;;;;;;4991276;28;20309;-75
2023/08/29 03:51:55;;;;;;;4.45;1.75;;;17.20;99.90;;;;;;5008381;28;20275;-74
2023/08/29 03:54:21;;;;;;;2.65;1.88;;;17.20;99.90;;;;;;5005354;28;20205;-75
2023/08/29 03:56:48;;;;;;;5.25;1.75;;;17.20;99.90;;;;;;5005584;28;20450;-74
2023/08/29 03:59:14;;;;;;;2.40;1.60;;;17.10;99.90;;;;;;4986302;28;20204;-75
2023/08/29 04:01:40;;;;;;;4.72;1.80;;;17.20;99.90;;;;;;4987466;28;20768;-75
2023/08/29 04:04:06;;;;;;;1.95;1.40;;;17.20;99.90;;;;;;5003922;28;20597;-75
2023/08/29 04:06:34;;;;;;;5.00;1.80;;;17.10;99.90;;;;;;5003086;28;20344;-75
2023/08/29 04:09:01;;;;;;;2.53;1.65;;;17.10;99.90;;;;;;5002353;28;20749;-75
2023/08/29 04:11:26;;;;;;;3.13;1.88;;;17.10;99.90;;;;;;5000892;28;20217;-75
2023/08/29 04:13:52;;;;;;;1.92;1.58;;;17.00;99.90;;;;;;4988517;28;20691;-75
2023/08/29 04:16:18;;;;;;;1.50;1.40;;;17.00;99.90;;;;;;5006083;28;20695;-76
2023/08/29 04:18:44;;;;;;;1.65;1.35;;;17.00;99.90;;;;;;5010489;28;20184;-76
2023/08/29 04:21:09;;;;;;;1.75;1.33;;;17.00;99.90;;;;;;4990973;28;20225;-75
2023/08/29 04:23:35;;;;;;;5.47;1.63;;;17.00;99.90;;;;;;5006923;28;20217;-75
2023/08/29 04:26:01;;;;;;;2.30;1.80;;;17.00;99.90;;;;;;5008086;28;20256;-75
2023/08/29 04:28:27;;;;;;;4.10;1.67;;;17.00;99.90;;;;;;4984349;28;20680;-76
2023/08/29 04:30:54;;;;;;;2.88;1.98;;;16.90;99.90;;;;;;4991568;28;20228;-76
2023/08/29 04:33:19;;;;;;;6.15;2.00;;;17.00;99.90;;;;;;5004713;28;20205;-75
2023/08/29 04:35:48;;;;;;;6.32;2.10;;;17.00;99.90;;;;;;5005824;28;20268;-75
2023/08/29 04:38:13;;;;;;;4.80;2.08;;;17.00;99.90;;;;;;4986510;28;20208;-75
2023/08/29 04:40:39;;;;;;;4.20;1.73;;;17.00;99.90;;;;;;5003810;28;20260;-75
2023/08/29 04:43:04;;;;;;;3.90;1.98;;;17.00;99.90;;;;;;5003598;28;20256;-75
2023/08/29 04:45:30;;;;;;;3.85;1.80;;;17.00;99.90;;;;;;5001897;28;20210;-74
2023/08/29 04:47:56;;;;;;;9.35;2.95;;;17.00;99.90;;;;;;5003381;28;20562;-75
2023/08/29 04:50:21;;;;;;;6.97;2.63;;;17.00;99.90;;;;;;4999033;28;20221;-75
2023/08/29 04:52:53;;;;;;;6.38;2.28;;;17.00;99.90;;;;;;4992661;28;20753;-73
2023/08/29 04:55:19;;;;;;;4.25;1.98;;;16.90;99.90;;;;;;5005809;28;20201;-74
2023/08/29 04:57:45;;;;;;;9.48;6.85;;;17.00;99.90;;;;;;4994364;28;20589;-74
2023/08/29 05:00:12;;;;;;;3.55;2.63;;;17.00;99.90;;;;;;4994324;28;20255;-74
2023/08/29 05:02:39;;;;;;;4.00;3.40;;;17.00;99.90;;;;;;5011300;28;20213;-75
2023/08/29 05:05:06;;;;;;;5.97;2.80;;;16.90;99.90;;;;;;5011009;28;20292;-76
2023/08/29 05:07:32;;;;;;;3.35;2.20;;;16.80;99.90;;;;;;5011453;28;20263;-75
2023/08/29 05:09:58;;;;;;;3.83;2.22;;;16.80;99.90;;;;;;4996285;28;20201;-75
2023/08/29 05:12:24;;;;;;;3.35;2.63;;;16.70;99.90;;;;;;4989607;28;20286;-77
2023/08/29 05:14:49;;;;;;;4.30;1.77;;;16.70;99.90;;;;;;4993110;28;20217;-76
2023/08/29 05:17:15;;;;;;;3.05;2.30;;;16.80;99.90;;;;;;4991924;28;20216;-77
2023/08/29 05:19:41;;;;;;;6.47;2.60;;;16.90;99.90;;;;;;5006046;28;20201;-76
2023/08/29 05:22:07;;;;;;;2.80;2.20;;;16.90;99.90;;;;;;5008504;28;20231;-77
2023/08/29 05:24:33;;;;;;;9.20;2.30;;;17.00;99.90;;;;;;4986573;28;20189;-75
2023/08/29 05:26:59;;;;;;;3.70;2.17;;;17.10;99.90;;;;;;5005793;28;20702;-76
2023/08/29 05:29:24;;;;;;;4.53;2.50;;;17.10;99.90;;;;;;5002018;28;20218;-76
2023/08/29 05:31:50;;;;;;;3.35;2.03;;;17.10;99.90;;;;;;5008258;28;20237;-76
2023/08/29 05:34:16;;;;;;;4.63;2.33;;;17.20;99.90;;;;;;5031238;23;20224;-74
2023/08/29 05:36:41;;;;;;;3.65;1.95;;;17.20;99.90;;;;;;5030437;28;20285;-72
2023/08/29 05:39:07;;;;;;;3.90;2.15;;;17.30;99.90;;;;;;5028105;28;20233;-72
2023/08/29 05:41:33;;;;;;;4.68;2.00;;;17.40;99.90;;;;;;5028815;28;20258;-71
2023/08/29 05:43:58;;;;;;;4.45;1.80;;;17.40;99.90;;;;;;5024382;28;20227;-71
2023/08/29 05:46:24;;;;;;;5.78;4.00;;;17.50;99.90;;;;;;5022617;28;20878;-72
2023/08/29 05:48:50;;;;;;;14.57;10.15;;;17.50;99.90;;;;;;5018138;28;20185;-71
2023/08/29 05:51:15;;;;;;;5.47;2.60;;;17.50;99.90;;;;;;5022356;28;20239;-72
2023/08/29 05:53:41;;;;;;;3.58;2.20;;;17.70;99.90;;;;;;5020925;28;20256;-71
2023/08/29 05:56:06;;;;;;;4.68;2.20;;;17.60;99.90;;;;;;5024870;28;20224;-72
2023/08/29 05:58:32;;;;;;;3.80;2.40;;;17.60;99.90;;;;;;5019927;28;20205;-71
2023/08/29 06:00:58;;;;;;;4.40;2.22;;;17.60;99.90;;;;;;5024319;28;20184;-73
2023/08/29 06:03:23;;;;;;;4.35;2.40;;;17.60;99.90;;;;;;5020349;28;20307;-71
2023/08/29 06:05:49;;;;;;;3.03;2.17;;;17.40;99.90;;;;;;5022564;28;20205;-70
2023/08/29 06:08:15;;;;;;;5.18;2.15;;;17.50;99.90;;;;;;5001195;28;20304;-72
2023/08/29 06:10:41;;;;;;;3.20;2.30;;;17.40;99.90;;;;;;5018336;28;20228;-71
2023/08/29 06:13:07;;;;;;;2.20;1.73;;;17.30;99.90;;;;;;5021919;28;20297;-72
2023/08/29 06:15:33;;;;;;;4.05;2.03;;;17.30;99.90;;;;;;5001270;28;20239;-71
2023/08/29 06:17:58;;;;;;;3.50;1.90;;;17.30;99.90;;;;;;5021568;28;20686;-72
2023/08/29 06:20:24;;;;;;;4.30;2.63;;;17.40;99.90;;;;;;5015303;28;20318;-73
2023/08/29 06:22:49;;;;;;;4.88;2.67;;;17.50;99.90;;;;;;5017662;28;20223;-72
2023/08/29 06:25:15;;;;;;;5.30;2.53;;;17.50;99.90;;;;;;5023060;28;20176;-72
2023/08/29 06:27:40;;;;;;;8.80;2.75;;;17.70;99.90;;;;;;5002150;28;20201;-73
2023/08/29 06:30:07;;;;;;;4.97;3.15;;;17.80;99.90;;;;;;5022483;28;20216;-73
2023/08/29 06:32:35;;;;;;;7.38;3.00;;;17.80;99.90;;;;;;5021161;28;20213;-71
2023/08/29 06:35:00;;;;;;;4.35;3.13;;;17.80;99.90;;;;;;5024087;28;20212;-73
2023/08/29 06:37:26;;;;;;;4.32;3.20;;;17.90;99.90;;;;;;5020911;28;20205;-73
2023/08/29 06:39:52;;;;;;;7.13;3.20;;;18.00;99.90;;;;;;5025166;28;20204;-73
2023/08/29 06:42:17;;;;;;;4.72;3.10;;;18.00;99.90;;;;;;5003988;28;20772;-72
2023/08/29 06:44:43;;;;;;;5.13;2.60;;;18.00;99.90;;;;;;5017821;28;20846;-73
2023/08/29 06:47:09;;;;;;;5.78;2.90;;;17.80;99.90;;;;;;5017488;28;20707;-73
2023/08/29 06:49:35;;;;;;;4.35;2.28;;;17.70;99.90;;;;;;5004022;28;20208;-72
2023/08/29 06:52:00;;;;;;;5.30;2.83;;;17.70;99.90;;;;;;5016431;28;20586;-72
2023/08/29 06:54:28;;;;;;;3.42;2.63;;;17.70;99.90;;;;;;5017662;28;20232;-73
2023/08/29 06:56:54;;;;;;;4.75;3.20;;;17.70;99.90;;;;;;5020096;28;20271;-72
2023/08/29 06:59:19;;;;;;;3.83;3.40;;;17.80;99.90;;;;;;5002466;28;20642;-72
2023/08/29 07:01:45;;;;;;;6.55;2.70;;;17.80;99.90;;;;;;4998949;28;20216;-72
2023/08/29 07:04:11;;;;;;;7.45;3.17;;;17.80;99.90;;;;;;5020150;28;20752;-73
2023/08/29 07:06:37;;;;;;;4.05;2.40;;;17.90;99.90;;;;;;5000058;28;20199;-72
2023/08/29 07:09:03;;;;;;;4.95;2.72;;;17.80;99.90;;;;;;5015745;28;20232;-72
2023/08/29 07:11:29;;;;;;;6.38;2.78;;;17.80;99.90;;;;;;4999434;28;20878;-73
2023/08/29 07:13:54;;;;;;;5.25;2.60;;;17.80;99.90;;;;;;5012219;28;20304;-72
2023/08/29 07:16:21;;;;;;;7.20;3.20;;;17.70;99.90;;;;;;5012589;28;20206;-71
2023/08/29 07:18:47;;;;;;;3.67;2.58;;;17.80;99.90;;;;;;5002353;28;20173;-71
2023/08/29 07:21:12;;;;;;;5.57;2.97;;;17.60;99.90;;;;;;5007628;28;20228;-75
2023/08/29 07:23:38;;;;;;;5.78;3.40;;;17.60;99.90;;;;;;5009232;28;20224;-74
2023/08/29 07:26:03;;;;;;;5.22;2.97;;;17.60;99.90;;;;;;4992177;28;20209;-74
2023/08/29 07:28:29;;;;;;;3.38;2.72;;;17.50;99.90;;;;;;5016606;28;20568;-75
2023/08/29 07:30:57;;;;;;;5.47;3.33;;;17.60;99.90;;;;;;5018835;28;20684;-74
2023/08/29 07:33:23;;;;;;;5.05;3.22;;;17.60;99.90;;;;;;5013378;28;20721;-76
2023/08/29 07:35:48;;;;;;;6.13;3.85;;;17.40;99.90;;;;;;4999508;28;20220;-74
2023/08/29 07:38:16;;;;;;;6.20;3.75;;;17.40;99.90;;;;;;5016102;28;20212;-75
2023/08/29 07:40:44;;;;;;;6.40;4.28;;;17.40;99.90;;;;;;5011867;28;20298;-73
2023/08/29 07:43:09;;;;;;;7.25;4.20;;;17.50;99.90;;;;;;5016199;28;20587;-74
2023/08/29 07:45:35;;;;;;;7.07;3.78;;;17.60;99.90;;;;;;4992568;28;20181;-73
2023/08/29 07:48:01;;;;;;;5.78;4.35;;;17.70;99.90;;;;;;5011902;28;20219;-74
2023/08/29 07:50:27;;;;;;;8.27;4.05;;;17.60;99.90;;;;;;5001095;28;20217;-75
2023/08/29 07:52:53;;;;;;;10.35;4.15;;;17.40;99.90;;;;;;4996213;28;20303;-75
2023/08/29 07:55:20;;;;;;;8.23;4.70;;;17.40;99.90;;;;;;5013317;28;20340;-75
2023/08/29 07:57:49;;;;;;;5.78;4.20;;;17.40;99.90;;;;;;5016104;28;20604;-74
2023/08/29 08:00:15;;;;;;;6.22;4.47;;;17.50;99.90;;;;;;5007654;28;20741;-74
2023/08/29 08:02:41;;;;;;;5.18;3.63;;;17.40;99.90;;;;;;4990217;28;20217;-73
2023/08/29 08:05:07;;;;;;;8.30;4.15;;;17.40;99.90;;;;;;5011844;28;20604;-74
2023/08/29 08:07:33;;;;;;;6.07;3.90;;;17.50;99.90;;;;;;4993093;28;20695;-75
2023/08/29 08:09:59;;;;;;;5.47;4.90;;;17.40;99.90;;;;;;5008611;28;20195;-74
2023/08/29 08:12:25;;;;;;;5.40;4.40;;;17.40;99.90;;;;;;5007230;28;20220;-75
2023/08/29 08:14:52;;;;;;;6.57;4.07;;;17.40;99.90;;;;;;5015246;28;20212;-75
2023/08/29 08:17:18;;;;;;;9.55;4.63;;;17.40;99.90;;;;;;5018556;28;20204;-75
2023/08/29 08:19:44;;;;;;;8.65;4.50;;;17.40;99.90;;;;;;5016799;28;20216;-74
2023/08/29 08:22:10;;;;;;;4.82;4.32;;;17.40;99.90;;;;;;4994820;28;20227;-74
2023/08/29 08:24:35;;;;;;;7.03;4.38;;;17.50;99.90;;;;;;5009645;28;20219;-74
2023/08/29 08:27:01;;;;;;;5.93;4.35;;;17.50;99.90;;;;;;5009789;28;20674;-75
2023/08/29 08:29:27;;;;;;;7.18;4.57;;;17.50;99.90;;;;;;5011301;28;20209;-75
2023/08/29 08:31:52;;;;;;;4.78;4.28;;;17.50;99.90;;;;;;5018377;28;20620;-74
2023/08/29 08:34:18;;;;;;;5.72;4.88;;;17.70;99.90;;;;;;5015958;28;20796;-76
2023/08/29 08:36:43;;;;;;;7.22;6.03;;;17.70;99.90;;;;;;4997377;28;20291;-73
2023/08/29 08:39:09;;;;;;;9.73;6.55;;;17.70;99.90;;;;;;5016038;28;20644;-75
2023/08/29 08:41:36;;;;;;;9.30;6.38;;;17.60;99.90;;;;;;5012720;28;20219;-75
2023/08/29 08:44:04;;;;;;;8.43;6.70;;;17.70;99.90;;;;;;5015273;28;20216;-74
2023/08/29 08:46:31;;;;;;;8.23;5.90;;;17.80;99.90;;;;;;5014542;28;20296;-74
2023/08/29 08:48:58;;;;;;;10.85;9.60;;;17.90;99.90;;;;;;5015906;28;20716;-74
2023/08/29 08:51:26;;;;;;;11.25;8.23;;;17.80;99.90;;;;;;5019717;28;20209;-75
2023/08/29 08:53:53;;;;;;;8.65;4.95;;;18.00;99.90;;;;;;5020729;28;20205;-74
2023/08/29 08:56:19;;;;;;;10.15;6.68;;;18.10;99.90;;;;;;5020509;28;20555;-73
2023/08/29 08:58:45;;;;;;;6.32;4.63;;;18.20;99.90;;;;;;5016805;28;20235;-75
2023/08/29 09:01:12;;;;;;;7.88;4.10;;;18.40;99.90;;;;;;5013190;28;20192;-76
2023/08/29 09:03:40;;;;;;;4.82;4.32;;;18.60;99.90;;;;;;5019158;28;20204;-77
2023/08/29 09:06:06;;;;;;;5.25;4.75;;;18.60;99.90;;;;;;5021824;28;20208;-77
2023/08/29 09:08:32;;;;;;;4.38;3.63;;;18.70;99.90;;;;;;4999382;28;20240;-75
2023/08/29 09:11:01;;;;;;;7.38;4.90;;;18.90;99.90;;;;;;4999742;28;20208;-74
2023/08/29 09:13:27;;;;;;;7.03;4.25;;;18.90;99.90;;;;;;5010677;28;20221;-74
2023/08/29 09:15:53;;;;;;;4.68;4.20;;;19.00;99.90;;;;;;5012094;28;20208;-74
2023/08/29 09:18:26;;;;;;;6.85;5.07;;;19.20;99.90;;;;;;5016527;28;20204;-74
2023/08/29 09:20:57;;;;;;;4.45;3.30;;;19.60;99.90;;;;;;4998260;28;20237;-72
2023/08/29 09:23:25;;;;;;;8.13;3.97;;;19.60;99.90;;;;;;5018091;28;20292;-74
2023/08/29 09:25:58;;;;;;;4.80;3.58;;;19.70;99.90;;;;;;5012495;28;20205;-73
2023/08/29 09:28:28;;;;;;;5.40;4.20;;;19.60;99.90;;;;;;5010847;28;20173;-73
2023/08/29 09:30:55;;;;;;;4.43;3.40;;;19.60;99.90;;;;;;5014166;28;20203;-74
2023/08/29 09:33:21;;;;;;;4.30;3.80;;;19.60;99.90;;;;;;5014236;28;20773;-74
2023/08/29 09:35:49;;;;;;;4.13;3.45;;;19.70;99.90;;;;;;5017885;28;20246;-74
2023/08/29 09:38:18;;;;;;;6.43;4.03;;;19.60;99.90;;;;;;5017936;28;20259;-77
2023/08/29 09:40:48;;;;;;;7.22;5.13;;;19.80;99.90;;;;;;5014466;28;20820;-74
2023/08/29 09:43:15;;;;;;;3.22;2.78;;;19.90;99.90;;;;;;5020953;28;20745;-73
2023/08/29 09:45:41;;;;;;;6.65;5.68;;;19.80;99.90;;;;;;5011693;28;20321;-74
2023/08/29 09:48:08;;;;;;;5.55;3.83;;;20.00;99.90;;;;;;5011611;28;20286;-74
2023/08/29 09:50:35;;;;;;;4.47;3.45;;;20.00;99.90;;;;;;4999973;28;20214;-75
2023/08/29 09:53:02;;;;;;;5.10;3.78;;;19.90;99.90;;;;;;4996718;28;20220;-74
2023/08/29 09:55:33;;;;;;;4.25;3.22;;;19.80;99.90;;;;;;5011702;28;20225;-76
2023/08/29 09:58:01;;;;;;;4.85;4.40;;;19.60;99.90;;;;;;5017789;28;20190;-73
2023/08/29 10:00:27;;;;;;;6.97;5.28;;;19.60;99.90;;;;;;5021034;28;20235;-74
2023/08/29 10:02:56;;;;;;;5.85;3.67;;;19.60;99.90;;;;;;5013201;28;20214;-72
2023/08/29 10:05:25;;;;;;;3.75;2.80;;;19.80;99.90;;;;;;5011610;28;20208;-74
2023/08/29 10:07:57;;;;;;;7.10;3.92;;;19.80;99.90;;;;;;5008995;28;20304;-74
2023/08/29 10:10:23;;;;;;;6.15;3.92;;;19.80;99.90;;;;;;5013898;28;20769;-73
2023/08/29 10:12:54;;;;;;;3.53;3.22;;;19.80;99.90;;;;;;5014841;28;20683;-75
2023/08/29 10:15:21;;;;;;;4.35;3.15;;;19.70;99.90;;;;;;5019652;28;20219;-76
2023/08/29 10:17:48;;;;;;;6.75;4.10;;;19.60;99.90;;;;;;5016149;28;20675;-74
2023/08/29 10:20:17;;;;;;;6.88;5.07;;;19.50;99.90;;;;;;4992342;28;20263;-75
2023/08/29 10:22:48;;;;;;;6.30;4.60;;;19.40;99.90;;;;;;5013905;28;20221;-76
2023/08/29 10:25:14;;;;;;;4.75;3.90;;;19.40;99.90;;;;;;4998732;28;20188;-77
2023/08/29 10:27:41;;;;;;;8.20;5.40;;;19.60;99.90;;;;;;5016639;28;20196;-75
2023/08/29 10:30:08;;;;;;;5.82;5.05;;;19.70;99.90;;;;;;5015189;28;20600;-76
2023/08/29 10:32:37;;;;;;;10.23;6.75;;;19.60;99.90;;;;;;5000445;28;20205;-74
2023/08/29 10:35:03;;;;;;;7.13;3.83;;;19.60;99.90;;;;;;5013799;28;20224;-74
2023/08/29 10:37:29;;;;;;;4.35;3.58;;;19.70;99.90;;;;;;5018583;28;20746;-74
2023/08/29 10:40:11;;;;;;;5.03;3.53;;;19.60;99.90;;;;;;5014795;28;20323;-73
2023/08/29 10:43:00;;;;;;;6.22;4.97;;;19.50;99.90;;;;;;5013575;28;20220;-74
2023/08/29 10:45:56;;;;;;;4.95;4.30;;;19.40;99.90;;;;;;4997711;28;20770;-75
2023/08/29 10:48:43;;;;;;;5.75;4.38;;;19.30;99.90;;;;;;5010583;28;20213;-75
2023/08/29 10:51:19;;;;;;;7.13;3.63;;;19.20;99.90;;;;;;4992238;28;20246;-74
2023/08/29 10:53:48;;;;;;;5.32;4.15;;;19.30;99.90;;;;;;5017987;28;20625;-74
2023/08/29 10:56:17;;;;;;;5.70;3.97;;;19.20;99.90;;;;;;5011473;28;20221;-74
2023/08/29 10:58:44;;;;;;;4.45;3.33;;;19.20;99.90;;;;;;5019424;28;20216;-74
2023/08/29 11:01:27;;;;;;;4.22;3.53;;;19.30;99.90;;;;;;5010712;28;20183;-74
2023/08/29 11:03:58;;;;;;;6.07;4.28;;;19.50;99.90;;;;;;5012807;28;20262;-75
2023/08/29 11:06:47;;;;;;;7.22;3.50;;;19.50;99.90;;;;;;5009414;28;20205;-74
2023/08/29 11:09:20;;;;;;;4.90;4.07;;;19.50;99.90;;;;;;4989696;28;20228;-74
2023/08/29 11:12:08;;;;;;;6.07;3.72;;;19.40;99.90;;;;;;5014746;28;20281;-73
2023/08/29 11:14:51;;;;;;;5.90;3.95;;;19.40;99.90;;;;;;5008669;28;20219;-71
2023/08/29 11:17:23;;;;;;;4.80;3.58;;;19.40;99.90;;;;;;5015110;28;20234;-73
2023/08/29 11:19:56;;;;;;;4.85;4.03;;;19.40;99.90;;;;;;5005819;28;20280;-73
2023/08/29 11:22:25;;;;;;;4.85;3.53;;;19.50;99.90;;;;;;5009550;28;20177;-76
2023/08/29 11:24:54;;;;;;;4.93;3.58;;;19.70;99.90;;;;;;5010235;28;20819;-72
2023/08/29 11:27:21;;;;;;;5.43;4.85;;;19.90;99.90;;;;;;5008576;28;20231;-72
2023/08/29 11:29:48;;;;;;;8.52;5.07;;;20.00;99.90;;;;;;5005084;28;20212;-72
2023/08/29 11:32:16;;;;;;;6.05;4.85;;;20.00;99.90;;;;;;4992041;28;20229;-74
2023/08/29 11:34:42;;;;;;;7.05;6.35;;;20.10;99.90;;;;;;5013700;28;20249;-73
2023/08/29 11:37:09;;;;;;;5.32;4.60;;;20.20;99.90;;;;;;5012570;28;20259;-76
2023/08/29 11:39:36;;;;;;;10.20;6.25;;;20.40;99.90;;;;;;5038595;23;20226;-75
2023/08/29 11:42:03;;;;;;;6.85;5.90;;;20.60;99.90;;;;;;5027122;28;20243;-75
2023/08/29 11:44:33;;;;;;;4.97;4.40;;;20.80;99.90;;;;;;5041447;28;20614;-75
2023/08/29 11:46:59;;;;;;;3.85;3.47;;;21.00;99.90;;;;;;5044127;28;20215;-75
2023/08/29 11:49:25;;;;;;;4.70;3.80;;;21.30;99.90;;;;;;5036540;28;20228;-75
2023/08/29 11:51:51;;;;;;;4.65;3.90;;;21.40;99.90;;;;;;5012766;28;20211;-75
2023/08/29 11:54:50;;;;;;;4.20;3.75;;;21.50;99.90;;;;;;5031668;28;20614;-75
2023/08/29 11:57:16;;;;;;;4.50;3.00;;;21.50;99.90;;;;;;5031010;28;20295;-74
2023/08/29 11:59:43;;;;;;;5.65;3.67;;;21.50;99.90;;;;;;5032946;28;20299;-75
2023/08/29 12:02:16;;;;;;;3.95;2.92;;;21.50;99.90;;;;;;5027859;28;20211;-74
2023/08/29 12:04:43;;;;;;;4.43;3.65;;;21.50;99.90;;;;;;5028325;28;20211;-74
2023/08/29 12:07:13;;;;;;;16.83;14.77;;;21.20;99.90;;;;;;5027077;28;20188;-73
2023/08/29 12:09:43;;;;;;;9.07;7.38;;;21.00;99.90;;;;;;5013377;28;20196;-74
2023/08/29 12:12:29;;;;;;;5.35;4.82;;;20.80;99.90;;;;;;5017466;28;20207;-75
2023/08/29 12:14:54;;;;;;;7.38;6.38;;;20.80;99.90;;;;;;5026132;28;20208;-73
2023/08/29 12:17:20;;;;;;;5.10;4.43;;;20.60;99.90;;;;;;5030228;28;20227;-75
2023/08/29 12:19:47;;;;;;;10.63;6.40;;;20.70;99.90;;;;;;5029280;28;20596;-75
2023/08/29 12:22:13;;;;;;;7.03;5.95;;;20.60;99.90;;;;;;5030827;28;20557;-75
2023/08/29 12:24:39;;;;;;;7.13;5.38;;;20.70;99.90;;;;;;5013599;28;20192;-73
2023/08/29 12:27:06;;;;;;;5.80;5.25;;;20.60;99.90;;;;;;5013885;28;20204;-75
2023/08/29 12:29:31;;;;;;;4.57;3.88;;;20.50;99.90;;;;;;5031904;28;20216;-74
2023/08/29 12:31:57;;;;;;;6.05;5.18;;;20.50;99.90;;;;;;5017191;28;20261;-73
2023/08/29 12:34:23;;;;;;;6.10;4.43;;;20.60;99.90;;;;;;5013536;28;20717;-75
2023/08/29 12:36:49;;;;;;;6.05;4.85;;;20.50;99.90;;;;;;5030118;28;20215;-73
2023/08/29 12:39:15;;;;;;;7.75;5.90;;;20.60;99.90;;;;;;5029480;28;20295;-73
2023/08/29 12:41:41;;;;;;;5.45;4.25;;;20.60;99.90;;;;;;5029284;28;20215;-73
2023/08/29 12:44:06;;;;;;;9.40;5.28;;;20.50;99.90;;;;;;5033374;28;20215;-74
2023/08/29 12:46:34;;;;;;;5.68;4.97;;;20.50;99.90;;;;;;5014715;28;20200;-74